Airfield :
LOGIN :

Register | Disclaimer

   EN    FR    IT 

 










Legend :    VFR   Marginal VFR   IFR   Intensive IFR   Very Intensive IFR
Visi :
Ceiling :
>= 8 km
>= 3000ft
5 to 8 km
1000 to 3000 ft
1500m to 5 km
500 to 1000 ft
800 to 1500m
200 to 500 ft
< 800m
< 200 ft
Symbols :   Thunderstorms  Fog  Heavy snow  Heavy precipitations  Wind > 20 kt
SIGMETs :     Misc.  Thunderstorms  Icing  Turbulence  Mountain Waves  Volcanic Ashes







- Airport Elevation : 219 ft
- IATA code : DNR
- Download approach charts


LFRD - Dinard

CURRENT METAR :
  • 141830Z AUTO 24012KT 9999 ///TCU 05/02 Q0996 TEMPO 2000 TSRAGS BKN010 BKN015CB BECMG 24015G30KT

EXPIRED METARs :
  • 141800Z AUTO 25013KT 9999 SCT042 BKN050 BKN064 05/02 Q0996 TEMPO 2000 TSRAGS BKN010 BKN015CB BECMG 24015G30KT
  • 141730Z AUTO 24011KT 9999 FEW030 SCT046 BKN070 05/03 Q0996 TEMPO 2000 TSRAGS BKN010 BKN015CB BECMG 24015G30KT
  • 141700Z AUTO 26016KT 6000 RA BKN022/// BKN036/// BKN054/// ///TCU 05/03 Q0996 TEMPO 24020G45KT 2000 TSRAGS BKN010 BKN015CB
  • 141630Z AUTO 25012KT 9999 FEW036 BKN130 BKN180 05/02 Q0996 TEMPO 24020G45KT 2000 TSRAGS BKN010 BKN015CB
  • 141600Z AUTO 25011KT CAVOK 05/03 Q0996 TEMPO 24020G45KT 2000 TSRAGS BKN010 BKN015CB

TAF TAF LFRD
Valid from the 14 at 18:00 until the 15 at 18:00 UTC


141700Z 1418/1518 25013KT 9999 BKN025
TEMPO 1418/1512 4000 SHRAGS BKN015CB
PROB40
TEMPO 1418/1508 2000 TSRAGS BKN010 BKN015CB
BECMG 1418/1420 24015G30KT
BECMG 1422/1424 30025G40KT
BECMG 1501/1503 25015G25KT
BECMG 1507/1509 30020G35KT
BECMG 1513/1515 34015G25KT
ATIS : +33 2 99 16 81 50
No reported NOTAMs for that airfield.
2 SIGMETs reported for the Brest FIR (LFRR) :
 
Severe turbulence
LFRR SIGMET 15 VALID 141700/142000 LFPW
LFRR BREST FIR/UIR SEV TURB FCST WI N4730 W00800 - N4845 W00800 - N4815 W00515 - N4745 W00015 - N4630 W00015 - N4630 W00130 - N4730 W00800 FL160/300 MOV S 15KT NC=
Severe turbulence
LFRR SIGMET 14 VALID 141700/142000 LFPW
LFRR BREST FIR/UIR SEV TURB FCST WI N4630 W00045 - N4630 W00130 - N4330 W00145 - N4500 W00800 - N4900 W00800 - N5000 W00200 - N5000 W00115 - N4830 W00130 - N4830 W00400 - N4645 W00045 - N4630 W00045 SFC/FL050 STNR NC=



MET'MAP, your aeronautical weather chart ! - Copyright ORBIFLY December 2007 - Disclaimer

ORBIFLY MET'MAP TEAM :

Programming & Development : Alexandra Zaïnal
Concept & Development : Baudouin d'Aumeries
Co-Development & Prog : Marc-Olivier Méhu
Technical & hardware support : Manuel Goepfert

Contact : metmap@orbifly.com




SOURCES & CREDITS :

   NOAA